Flight Track Log - Related Links

Times and Time Zones

All times are in EDT time to prevent confusion due to time zone crossing. See the N3KP flight status page for this flight to view local times or setup timezone preferences in your user account.

Time Position Orientation Groundspeed Altitude Reporting Facility
EDT Latitude Longitude Course Direction KTS MPH feet Rate Location/Type
Wed 02:19:51 PM 37.6656 -82.6875 316° Northwest 101 116 5,200  Level Indianapolis Center
Wed 02:20:52 PM 37.6867 -82.7114 318° Northwest 102 117 5,900 634 Climbing Indianapolis Center
Wed 02:21:54 PM 37.7069 -82.7339 319° Northwest 99 114 6,500 585 Climbing Indianapolis Center
Wed 02:22:55 PM 37.7267 -82.7567 318° Northwest 98 113 7,100 634 Climbing Indianapolis Center
Wed 02:23:57 PM 37.7514 -82.7844 318° Northwest 100 115 7,800 629 Climbing Indianapolis Center
Wed 02:24:00 PM 37.7438 -82.7771 322° Northwest  Level FlightAware Approximate
Wed 02:24:59 PM 37.7728 -82.8086 318° Northwest 103 119 8,400  Level Indianapolis Center
Wed 02:26:00 PM 37.7939 -82.8331 318° Northwest 102 117 8,900 585 Climbing Indianapolis Center
Wed 02:27:02 PM 37.8156 -82.8572 319° Northwest 104 120 9,600 629 Climbing Indianapolis Center
Wed 02:28:04 PM 37.8367 -82.8828 316° Northwest 105 121 10,200 537 Climbing Indianapolis Center
Wed 02:29:05 PM 37.8575 -82.9072 317° Northwest 104 120 10,700 488 Climbing Indianapolis Center
Wed 02:30:07 PM 37.8789 -82.9314 318° Northwest 104 120 11,200 581 Climbing Indianapolis Center
Wed 02:31:09 PM 37.9039 -82.9603 318° Northwest 103 119 11,900 387 Climbing Indianapolis Center
Wed 02:32:11 PM 37.9256 -82.9856 317° Northwest 105 121 12,000 49 Climbing Indianapolis Center
Wed 02:33:12 PM 37.9547 -83.0164 320° Northwest 126 145 12,000  Level Indianapolis Center
Wed 02:34:14 PM 37.9853 -83.0542 316° Northwest 147 169 12,000  Level Indianapolis Center
Wed 02:35:16 PM 38.0153 -83.0908 316° Northwest 150 173 12,000  Level Indianapolis Center
Wed 02:36:17 PM 38.0450 -83.1258 317° Northwest 147 169 12,000  Level Indianapolis Center
Wed 02:37:19 PM 38.0800 -83.1650 319° Northwest 146 168 12,000  Level Indianapolis Center
Wed 02:38:21 PM 38.1086 -83.1989 317° Northwest 143 165 12,000  Level Indianapolis Center
Wed 02:39:22 PM 38.1367 -83.2325 317° Northwest 141 162 12,000  Level Indianapolis Center
Wed 02:40:24 PM 38.1667 -83.2653 319° Northwest 142 163 12,000  Level Indianapolis Center
Wed 02:41:26 PM 38.1950 -83.2997 316° Northwest 142 163 12,000  Level Indianapolis Center
Wed 02:42:28 PM 38.2247 -83.3331 319° Northwest 142 163 12,000  Level Indianapolis Center
Wed 02:43:29 PM 38.2586 -83.3717 318° Northwest 141 162 12,000  Level Indianapolis Center
Wed 02:44:31 PM 38.2875 -83.4069 316° Northwest 142 163 12,000  Level Indianapolis Center
Wed 02:45:33 PM 38.3147 -83.4397 317° Northwest 138 159 12,000  Level Indianapolis Center
Wed 02:46:35 PM 38.3453 -83.4733 319° Northwest 143 165 12,000  Level Indianapolis Center
Wed 02:47:37 PM 38.3736 -83.5092 315° West 143 165 12,000  Level Indianapolis Center
Wed 02:48:38 PM 38.4072 -83.5494 317° Northwest 141 162 12,000  Level Indianapolis Center
Wed 02:49:40 PM 38.4367 -83.5836 318° Northwest 143 165 12,000  Level Indianapolis Center
Wed 02:50:42 PM 38.4658 -83.6189 317° Northwest 144 166 12,000  Level Indianapolis Center
Wed 02:51:44 PM 38.4950 -83.6528 318° Northwest 143 165 12,000  Level Indianapolis Center
Wed 02:52:46 PM 38.5264 -83.6858 321° Northwest 146 168 12,000  Level Indianapolis Center
Wed 02:53:48 PM 38.5553 -83.7222 315° West 145 167 12,000  Level Indianapolis Center
Wed 02:54:49 PM 38.5889 -83.7625 317° Northwest 144 166 12,000  Level Indianapolis Center
Wed 02:55:51 PM 38.6192 -83.7975 318° Northwest 146 168 12,000  Level Indianapolis Center
Wed 02:56:53 PM 38.6469 -83.8322 316° Northwest 147 169 12,000  Level Indianapolis Center
Wed 02:57:55 PM 38.6767 -83.8669 318° Northwest 145 167 12,000  Level Indianapolis Center
Wed 02:58:57 PM 38.7072 -83.9039 317° Northwest 148 170 12,000  Level Indianapolis Center
Wed 02:59:59 PM 38.7369 -83.9414 315° West 148 170 12,000  Level Indianapolis Center
Wed 03:01:01 PM 38.7714 -83.9806 318° Northwest 145 167 12,000  Level Indianapolis Center
Wed 03:02:02 PM 38.8028 -84.0167 318° Northwest 148 170 12,000  Level Indianapolis Center
Wed 03:03:04 PM 38.8331 -84.0536 316° Northwest 148 170 12,000  Level Indianapolis Center
Wed 03:04:06 PM 38.8633 -84.0911 316° Northwest 150 173 12,000  Level Indianapolis Center
Wed 03:05:08 PM 38.8925 -84.1272 316° Northwest 145 167 12,000  Level Indianapolis Center
Wed 03:06:10 PM 38.9233 -84.1619 319° Northwest 146 168 12,000  Level Indianapolis Center
Wed 03:07:12 PM 38.9531 -84.1997 315° West 147 169 12,000  Level Indianapolis Center
Wed 03:08:14 PM 38.9842 -84.2353 318° Northwest 148 170 12,000  Level Indianapolis Center
Wed 03:09:16 PM 39.0189 -84.2772 317° Northwest 147 169 12,000  Level Indianapolis Center
Wed 03:10:18 PM 39.0494 -84.3131 318° Northwest 147 169 12,000  Level Indianapolis Center
Wed 03:11:20 PM 39.0797 -84.3486 318° Northwest 146 168 12,000  Level Indianapolis Center
Wed 03:12:22 PM 39.1089 -84.3869 314° West 147 169 12,000  Level Indianapolis Center
Wed 03:13:24 PM 39.1389 -84.4225 317° Northwest 147 169 12,000  Level Indianapolis Center
Wed 03:14:26 PM 39.1700 -84.4589 318° Northwest 150 173 12,000 -194 Level Indianapolis Center
Wed 03:15:28 PM 39.2011 -84.4964 317° Northwest 152 175 11,600 -387 Descending Indianapolis Center
Wed 03:16:30 PM 39.2350 -84.5381 316° Northwest 161 185 11,200 -484 Descending Indianapolis Center
Wed 03:17:32 PM 39.2767 -84.5872 318° Northwest 167 192 10,600 -629 Descending Indianapolis Center
Wed 03:18:34 PM 39.3125 -84.6311 317° Northwest 171 197 9,900 -690 Descending Indianapolis Center
Wed 03:18:59 PM 39.3333 -84.6500 325° Northwest 178 205 9,600 -593 Descending Cincinnati TRACON
Wed 03:20:05 PM 39.3667 -84.7000 311° West 179 206 9,000 -545 Descending Cincinnati TRACON
Wed 03:20:38 PM 39.3856 -84.7203 320° Northwest 177 204 8,700 -505 Descending Indianapolis Center
Wed 03:21:40 PM 39.4217 -84.7631 318° Northwest 177 204 8,200 -339 Descending Indianapolis Center
Wed 03:22:42 PM 39.4550 -84.8058 315° West 173 199 8,000 -97 Descending Indianapolis Center
Wed 03:23:44 PM 39.4825 -84.8433 314° West 162 186 8,000  Level Indianapolis Center
Wed 03:24:46 PM 39.5136 -84.8778 320° Northwest 152 175 8,000 -290 Level Indianapolis Center
Wed 03:25:48 PM 39.5475 -84.9206 316° Northwest 146 168 7,400 -581 Descending Indianapolis Center
Wed 03:26:50 PM 39.5831 -84.9606 319° Northwest 154 177 6,800 -581 Descending Indianapolis Center
Wed 03:27:52 PM 39.6211 -84.9981 323° Northwest 161 185 6,200 -629 Descending Indianapolis Center
Wed 03:28:54 PM 39.6603 -85.0356 324° Northwest 167 192 5,500 -677 Descending Indianapolis Center
Wed 03:29:56 PM 39.6972 -85.0742 321° Northwest 169 194 4,800 -762 Descending Indianapolis Center
Wed 03:31:55 PM 39.7833 -85.1333 332° Northwest 181 208 3,200 -584 Descending Indianapolis TRACON
Wed 03:33:01 PM 39.8333 -85.1667 333° Northwest 150 173 3,000 -190 Descending Indianapolis TRACON
Wed 03:34:01 PM 39.8500 -85.2000 303° West 130 150 2,800 -200 Descending Indianapolis TRACON

Login

Don't have an account? Register now (free) for customized features, flight alerts, and more!